Main page
METAR-TAF:

METAR-TAF

Airports :

Fuaʻamotu International Airport

Tongatapu, Tonga

latitude: 21-14S, longitude: 175-09W, elevation: 38 m

Current weather observation

The report was made 1 hour and 6 minutes ago, at 09:00 UTC
Wind 8 kt from the East/Southeast
Temperature 21°C
Humidity 83%
Pressure 1015 hPa
Visibility 10 km or more
Scattered clouds at a height of 1600 ft, Towering cumulus.
Broken clouds at a height of 27000 ft

METAR: NFTF 120900Z 12008KT 9999 SCT016TCU BKN270 21/18 Q1015

Time: 23:06 (10:06 UTC)

Forecast

The report was made 4 hours and 53 minutes ago, at 05:13 UTC
Forecast valid from 12 at 06 UTC to 13 at 06 UTC
Wind 10 kt from the East/Southeast
Visibility 10 km or more
Scattered clouds at a height of 1800 ft
Probability 30% :
Temporary
from 12 at 17 UTC to 13 at 06 UTC
Wind 15 kt from the East/Southeast with gusts up to 25 kt

TAF: NFTF 120513Z 1206/1306 12010KT 9999 SCT018 PROB30 TEMPO 1217/1306 12015G25KT

Weather observations and forecasts of more than 4000 airports (METAR and TAF reports).

The available stations are represented by yellow and red dots on the map.

Hover mouse over dot to see the name of the station.

Then click to see weather observations and forecasts.

To change the map : click on the green buttons with a black cross to zoom in, on the green button with a dash to zoom out, or on the green arrows for adjacent maps.


METAR-TAF: